createdAt,value
2022-12-23T00:00:15.205Z,7.03
2022-12-23T00:02:43.572Z,8.10
2022-12-23T00:05:14.258Z,6.70
2022-12-23T00:07:42.295Z,6.90
2022-12-23T00:10:11.478Z,8.60
2022-12-23T00:12:56.798Z,10.43
2022-12-23T00:15:24.848Z,9.00
2022-12-23T00:17:53.017Z,6.47
2022-12-23T00:20:22.554Z,7.73
2022-12-23T00:23:08.653Z,6.17
2022-12-23T00:25:41.864Z,9.43
2022-12-23T00:28:11.784Z,9.23
2022-12-23T00:30:45.744Z,6.90
2022-12-23T00:33:14.397Z,5.40
2022-12-23T00:35:44.122Z,8.70
2022-12-23T00:38:13.088Z,7.30
2022-12-23T00:40:58.419Z,5.53
2022-12-23T00:43:26.632Z,4.93
2022-12-23T00:45:54.925Z,4.50
2022-12-23T00:48:40.461Z,8.03
2022-12-23T00:51:09.905Z,8.10
2022-12-23T00:53:37.985Z,8.00
2022-12-23T00:56:06.844Z,5.17
2022-12-23T00:58:34.980Z,8.53
2022-12-23T01:01:20.473Z,5.17
2022-12-23T01:04:12.389Z,10.30
2022-12-23T01:06:41.886Z,7.53
2022-12-23T01:09:09.984Z,8.23
2022-12-23T01:11:38.077Z,9.70
2022-12-23T01:14:09.274Z,11.67
2022-12-23T01:16:38.816Z,8.37
2022-12-23T01:19:07.725Z,7.83
2022-12-23T01:21:36.289Z,11.33
2022-12-23T01:24:06.217Z,8.77
2022-12-23T01:26:34.364Z,8.50
2022-12-23T01:29:02.735Z,10.17
2022-12-23T01:31:31.123Z,15.50
2022-12-23T01:33:59.296Z,11.70
2022-12-23T01:36:27.591Z,12.20
2022-12-23T01:38:56.789Z,10.03
2022-12-23T01:41:45.791Z,14.57
2022-12-23T01:44:52.432Z,17.57
2022-12-23T01:47:25.034Z,14.73
2022-12-23T01:49:57.600Z,16.37
2022-12-23T01:52:26.092Z,16.67
2022-12-23T01:54:54.782Z,18.43
2022-12-23T01:57:25.038Z,16.23
2022-12-23T02:00:10.737Z,22.37
2022-12-23T02:03:05.654Z,14.83
2022-12-23T02:05:33.925Z,20.20
2022-12-23T02:08:20.786Z,20.17
2022-12-23T02:11:09.330Z,23.53
2022-12-23T02:14:08.571Z,25.00
2022-12-23T02:16:49.696Z,26.80
2022-12-23T02:19:24.148Z,26.00
2022-12-23T02:22:14.880Z,19.30
2022-12-23T02:25:18.902Z,27.63
2022-12-23T02:28:31.394Z,20.27
2022-12-23T02:31:29.237Z,34.40
2022-12-23T02:34:11.392Z,29.40
2022-12-23T02:36:46.777Z,24.97
2022-12-23T02:39:22.066Z,23.80
2022-12-23T02:41:58.644Z,33.43
2022-12-23T02:44:34.532Z,22.37
2022-12-23T02:47:14.439Z,22.20
2022-12-23T02:49:47.138Z,29.53
2022-12-23T02:52:17.974Z,26.53
2022-12-23T02:54:51.526Z,29.27
2022-12-23T02:57:22.570Z,24.80
2022-12-23T02:59:53.150Z,176.50
2022-12-23T03:02:22.791Z,79.60
2022-12-23T03:04:51.220Z,48.27
2022-12-23T03:07:24.815Z,31.57
2022-12-23T03:10:00.079Z,32.83
2022-12-23T03:12:40.476Z,33.30
2022-12-23T03:15:19.393Z,127.17
2022-12-23T03:18:01.338Z,459.70
2022-12-23T03:20:38.742Z,296.43
2022-12-23T03:23:14.144Z,366.20
2022-12-23T03:25:48.962Z,424.77
2022-12-23T03:28:31.692Z,149.83
2022-12-23T03:31:24.494Z,486.63
2022-12-23T03:33:59.207Z,528.60
2022-12-23T03:36:33.009Z,612.27
2022-12-23T03:39:04.641Z,135.30
2022-12-23T03:41:56.306Z,197.43
2022-12-23T03:44:29.208Z,356.70
2022-12-23T03:47:05.302Z,67.40
2022-12-23T03:49:39.150Z,293.57
2022-12-23T03:52:20.813Z,96.07
2022-12-23T03:54:54.456Z,110.00
2022-12-23T03:57:26.964Z,120.07
2022-12-23T03:59:55.744Z,121.87
2022-12-23T04:02:28.702Z,171.67
2022-12-23T04:05:16.794Z,149.43
2022-12-23T04:07:50.751Z,37.40
2022-12-23T04:10:20.159Z,41.00
2022-12-23T04:12:48.793Z,33.23
2022-12-23T04:15:21.239Z,42.13
2022-12-23T04:17:49.931Z,25.83
2022-12-23T04:20:19.750Z,27.27
2022-12-23T04:22:50.760Z,65.27
2022-12-23T04:25:19.570Z,24.13
2022-12-23T04:27:47.897Z,30.07
2022-12-23T04:30:16.298Z,21.00
2022-12-23T04:32:44.448Z,22.13
2022-12-23T04:35:13.685Z,21.40
2022-12-23T04:37:43.293Z,18.87
2022-12-23T04:40:11.687Z,14.87
2022-12-23T04:42:39.773Z,19.50
2022-12-23T04:45:08.841Z,15.60
2022-12-23T04:47:36.927Z,11.70
2022-12-23T04:50:05.529Z,12.17
2022-12-23T04:52:34.188Z,13.27
2022-12-23T04:55:03.681Z,8.97
2022-12-23T04:57:31.747Z,12.03
2022-12-23T04:59:59.851Z,6.47
2022-12-23T05:02:28.123Z,9.57
2022-12-23T05:04:56.308Z,6.63
2022-12-23T05:07:24.406Z,7.40
2022-12-23T05:09:52.536Z,10.33
2022-12-23T05:12:40.968Z,9.57
2022-12-23T05:15:29.386Z,6.00
2022-12-23T05:18:08.438Z,7.87
2022-12-23T05:20:55.522Z,8.53
2022-12-23T05:23:23.660Z,6.37
2022-12-23T05:25:53.066Z,6.43
2022-12-23T05:28:23.677Z,6.40
2022-12-23T05:30:59.285Z,3.50
2022-12-23T05:33:27.550Z,3.23
2022-12-23T05:35:55.721Z,14.40
2022-12-23T05:38:24.152Z,5.40
2022-12-23T05:40:52.538Z,5.70
2022-12-23T05:43:22.411Z,3.10
2022-12-23T05:45:51.808Z,7.50
2022-12-23T05:48:20.882Z,4.40
2022-12-23T05:50:51.839Z,4.93
2022-12-23T05:53:20.652Z,3.53
2022-12-23T05:55:49.687Z,5.13
2022-12-23T05:58:18.361Z,3.90
2022-12-23T06:00:47.919Z,5.90
2022-12-23T06:03:16.161Z,3.17
2022-12-23T06:05:44.408Z,2.53
2022-12-23T06:08:12.520Z,2.90
2022-12-23T06:10:43.249Z,3.00
2022-12-23T06:13:11.470Z,2.90
2022-12-23T06:15:39.746Z,2.50
2022-12-23T06:18:09.183Z,3.90
2022-12-23T06:20:37.449Z,5.53
2022-12-23T06:23:05.795Z,6.30
2022-12-23T06:25:33.926Z,3.17
2022-12-23T06:28:01.993Z,2.77
2022-12-23T06:30:30.110Z,3.43
2022-12-23T06:32:58.166Z,3.10
2022-12-23T06:35:27.700Z,3.63
2022-12-23T06:37:55.849Z,3.00
2022-12-23T06:40:23.938Z,3.57
2022-12-23T06:42:52.045Z,14.10
2022-12-23T06:45:23.294Z,3.30
2022-12-23T06:47:51.349Z,3.67
2022-12-23T06:50:19.849Z,3.73
2022-12-23T06:52:50.019Z,3.90
2022-12-23T06:55:18.281Z,3.70
2022-12-23T06:57:46.467Z,3.93
2022-12-23T07:00:15.919Z,3.40
2022-12-23T07:02:44.295Z,3.77
2022-12-23T07:05:12.545Z,4.17
2022-12-23T07:07:40.689Z,3.83
2022-12-23T07:10:10.921Z,3.90
2022-12-23T07:12:39.517Z,3.70
2022-12-23T07:15:09.368Z,6.07
2022-12-23T07:17:37.460Z,3.80
2022-12-23T07:20:06.757Z,3.80
2022-12-23T07:22:34.915Z,3.40
2022-12-23T07:25:03.055Z,3.70
2022-12-23T07:27:32.491Z,6.97
2022-12-23T07:30:00.731Z,3.33
2022-12-23T07:32:29.858Z,3.83
2022-12-23T07:34:57.983Z,3.80
2022-12-23T07:37:26.041Z,3.57
2022-12-23T07:39:54.133Z,7.87
2022-12-23T07:42:44.331Z,3.90
2022-12-23T07:45:12.475Z,2.90
2022-12-23T07:47:40.571Z,4.07
2022-12-23T07:50:09.849Z,3.40
2022-12-23T07:52:37.989Z,3.43
2022-12-23T07:55:07.275Z,3.33
2022-12-23T07:57:38.005Z,3.30
2022-12-23T08:00:08.222Z,3.63
2022-12-23T08:02:42.489Z,3.40
2022-12-23T08:05:11.249Z,3.23
2022-12-23T08:07:39.435Z,3.67
2022-12-23T08:10:09.207Z,3.27
2022-12-23T08:12:37.314Z,3.90
2022-12-23T08:15:06.386Z,3.47
2022-12-23T08:17:34.499Z,3.87
2022-12-23T08:20:04.027Z,3.93
2022-12-23T08:22:32.696Z,4.03
2022-12-23T08:25:00.793Z,3.53
2022-12-23T08:27:29.064Z,3.40
2022-12-23T08:29:57.301Z,3.67
2022-12-23T08:32:27.991Z,3.70
2022-12-23T08:34:57.345Z,3.30
2022-12-23T08:37:26.855Z,3.50
2022-12-23T08:39:54.990Z,3.20
2022-12-23T08:42:23.137Z,4.13
2022-12-23T08:44:51.212Z,3.70
2022-12-23T08:47:19.373Z,4.17
2022-12-23T08:49:48.684Z,4.17
2022-12-23T08:52:16.858Z,3.73
2022-12-23T08:54:46.317Z,4.03
2022-12-23T08:57:14.449Z,6.77
2022-12-23T08:59:42.688Z,4.13
2022-12-23T09:02:12.031Z,4.53
2022-12-23T09:04:40.318Z,3.47
2022-12-23T09:07:08.432Z,4.10
2022-12-23T09:09:38.038Z,3.50
2022-12-23T09:12:07.889Z,3.80
2022-12-23T09:14:36.009Z,4.23
2022-12-23T09:17:04.109Z,4.33
2022-12-23T09:19:32.289Z,4.07
2022-12-23T09:22:00.386Z,4.27
2022-12-23T09:24:28.455Z,4.60
2022-12-23T09:26:56.572Z,4.53
2022-12-23T09:29:26.112Z,5.10
2022-12-23T09:31:54.324Z,4.77
2022-12-23T09:34:22.462Z,4.83
2022-12-23T09:36:55.211Z,5.60
2022-12-23T09:39:24.101Z,5.13
2022-12-23T09:42:04.701Z,5.10
2022-12-23T09:44:46.526Z,5.63
2022-12-23T09:47:18.991Z,6.73
2022-12-23T09:49:50.420Z,4.47
2022-12-23T09:52:24.869Z,4.03
2022-12-23T09:54:56.076Z,4.30
2022-12-23T09:57:32.381Z,3.73
2022-12-23T10:00:08.810Z,3.60
2022-12-23T10:02:49.742Z,3.40
2022-12-23T10:05:31.342Z,3.23
2022-12-23T10:08:05.770Z,2.60
2022-12-23T10:10:39.804Z,7.73
2022-12-23T10:13:13.101Z,2.90
2022-12-23T10:15:47.292Z,2.83
2022-12-23T10:18:21.996Z,3.07
2022-12-23T10:20:53.834Z,4.77
2022-12-23T10:23:31.103Z,2.60
2022-12-23T10:25:59.367Z,3.40
2022-12-23T10:28:29.858Z,4.03
2022-12-23T10:34:01.689Z,2.40
2022-12-23T10:36:40.085Z,2.60
2022-12-23T10:39:17.408Z,2.63
2022-12-23T10:41:53.902Z,2.33
2022-12-23T10:44:43.285Z,2.10
2022-12-23T10:47:24.031Z,2.27
2022-12-23T10:50:02.450Z,2.30
2022-12-23T10:52:34.224Z,2.70
2022-12-23T10:55:02.358Z,2.53
2022-12-23T10:57:31.169Z,2.87
2022-12-23T10:59:59.376Z,3.17
2022-12-23T11:02:48.030Z,2.90
2022-12-23T11:05:18.918Z,2.67
2022-12-23T11:07:47.870Z,3.00
2022-12-23T11:10:19.327Z,3.30
2022-12-23T11:12:49.843Z,3.70
2022-12-23T11:15:30.797Z,3.53
2022-12-23T11:18:06.020Z,5.60
2022-12-23T11:20:35.040Z,3.10
2022-12-23T11:23:04.754Z,3.77
2022-12-23T11:25:36.925Z,4.07
2022-12-23T11:28:08.915Z,3.40
2022-12-23T11:30:40.352Z,4.00
2022-12-23T11:33:22.279Z,5.63
2022-12-23T11:36:02.037Z,4.27
2022-12-23T11:38:30.305Z,4.07
2022-12-23T11:40:58.774Z,4.33
2022-12-23T11:43:28.384Z,3.80
2022-12-23T11:46:14.938Z,9.90
2022-12-23T11:48:46.564Z,5.40
2022-12-23T11:51:26.760Z,4.10
2022-12-23T11:54:01.704Z,4.37
2022-12-23T11:56:35.529Z,4.50
2022-12-23T11:59:07.014Z,7.73
2022-12-23T12:01:36.799Z,5.90
2022-12-23T12:04:10.412Z,5.40
2022-12-23T12:06:49.652Z,4.77
2022-12-23T12:09:23.516Z,4.40
2022-12-23T12:11:55.578Z,3.83
2022-12-23T12:14:32.413Z,4.00
2022-12-23T12:17:08.169Z,4.60
2022-12-23T12:19:44.610Z,5.83
2022-12-23T12:22:16.781Z,4.40
2022-12-23T12:24:51.515Z,4.97
2022-12-23T12:27:22.976Z,8.10
2022-12-23T12:29:56.855Z,4.80
2022-12-23T12:32:34.337Z,4.70
2022-12-23T12:35:09.016Z,11.60
2022-12-23T12:37:45.289Z,5.00
2022-12-23T12:40:26.232Z,5.43
2022-12-23T12:43:00.765Z,7.27
2022-12-23T12:45:36.154Z,5.70
2022-12-23T12:48:25.233Z,4.93
2022-12-23T12:51:03.749Z,4.17
2022-12-23T12:53:34.683Z,5.33
2022-12-23T12:56:11.265Z,4.10
2022-12-23T12:58:42.139Z,4.33
2022-12-23T13:01:24.952Z,8.10
2022-12-23T13:04:13.701Z,3.23
2022-12-23T13:06:54.587Z,2.93
2022-12-23T13:09:31.666Z,2.73
2022-12-23T13:12:08.608Z,3.03
2022-12-23T13:14:52.882Z,3.03
2022-12-23T13:17:26.275Z,2.97
2022-12-23T13:20:02.109Z,3.60
2022-12-23T13:22:34.990Z,4.40
2022-12-23T13:25:11.437Z,4.07
2022-12-23T13:27:51.797Z,3.97
2022-12-23T13:30:23.638Z,4.47
2022-12-23T13:33:19.100Z,4.20
2022-12-23T13:36:06.581Z,4.13
2022-12-23T13:38:51.351Z,4.60
2022-12-23T13:41:27.016Z,4.87
2022-12-23T13:43:57.805Z,4.90
2022-12-23T13:46:40.938Z,4.67
2022-12-23T13:49:17.936Z,4.33
2022-12-23T13:51:54.343Z,3.90
2022-12-23T13:54:36.811Z,3.80
2022-12-23T13:57:17.611Z,3.50
2022-12-23T14:00:04.912Z,3.13
2022-12-23T14:02:44.651Z,3.60
2022-12-23T14:05:39.448Z,3.40
2022-12-23T14:08:21.281Z,3.20
2022-12-23T14:10:55.803Z,4.03
2022-12-23T14:13:27.003Z,4.23
2022-12-23T14:16:20.143Z,4.73
2022-12-23T14:19:12.236Z,6.47
2022-12-23T14:21:50.921Z,7.07
2022-12-23T14:25:03.051Z,8.27
2022-12-23T14:27:42.013Z,10.43
2022-12-23T14:30:15.758Z,11.50
2022-12-23T14:32:49.669Z,13.87
2022-12-23T14:35:28.912Z,11.97
2022-12-23T14:38:29.216Z,10.47
2022-12-23T14:41:25.874Z,10.17
2022-12-23T14:43:59.893Z,13.27
2022-12-23T14:46:59.796Z,13.03
2022-12-23T14:49:41.348Z,11.90
2022-12-23T14:52:53.845Z,13.97
2022-12-23T14:55:43.771Z,11.67
2022-12-23T14:58:27.938Z,16.13
2022-12-23T15:01:02.857Z,11.73
2022-12-23T15:03:35.085Z,12.17
2022-12-23T15:06:07.438Z,12.37
2022-12-23T15:08:40.064Z,10.77
2022-12-23T15:11:14.549Z,11.57
2022-12-23T15:13:43.646Z,12.40
2022-12-23T15:16:17.467Z,13.10
2022-12-23T15:18:56.521Z,13.47
2022-12-23T15:21:30.337Z,12.10
2022-12-23T15:23:58.506Z,14.80
2022-12-23T15:26:29.408Z,13.07
2022-12-23T15:28:58.956Z,12.87
2022-12-23T15:31:32.054Z,12.43
2022-12-23T15:34:17.083Z,12.57
2022-12-23T15:36:47.473Z,9.30
2022-12-23T15:39:21.408Z,13.43
2022-12-23T15:41:50.598Z,10.30
2022-12-23T15:44:23.358Z,11.10
2022-12-23T15:46:54.984Z,9.53
2022-12-23T15:49:23.909Z,8.43
2022-12-23T15:52:16.462Z,7.70
2022-12-23T15:54:47.718Z,6.60
2022-12-23T15:57:21.720Z,7.53
2022-12-23T15:59:52.238Z,6.70
2022-12-23T16:03:03.404Z,5.87
2022-12-23T16:05:27.930Z,8.70
2022-12-23T16:08:12.463Z,5.70
2022-12-23T16:10:43.856Z,6.60
2022-12-23T16:13:22.026Z,6.60
2022-12-23T16:15:51.656Z,5.97
2022-12-23T16:18:25.773Z,7.30
2022-12-23T16:20:57.297Z,11.20
2022-12-23T16:23:32.222Z,5.90
2022-12-23T16:26:02.617Z,6.67
2022-12-23T16:28:39.152Z,8.90
2022-12-23T16:31:10.809Z,9.20
2022-12-23T16:33:44.541Z,10.00
2022-12-23T16:36:18.725Z,11.13
2022-12-23T16:38:49.715Z,11.17
2022-12-23T16:41:19.263Z,10.70
2022-12-23T16:43:53.064Z,8.50
2022-12-23T16:46:24.065Z,8.17
2022-12-23T16:48:57.779Z,5.87
2022-12-23T16:51:28.445Z,5.37
2022-12-23T16:53:59.217Z,5.10
2022-12-23T16:56:32.141Z,4.77
2022-12-23T16:59:01.105Z,5.27
2022-12-23T17:01:33.553Z,5.73
2022-12-23T17:04:04.495Z,7.13
2022-12-23T17:06:33.741Z,6.30
2022-12-23T17:09:03.219Z,6.50
2022-12-23T17:11:38.526Z,5.97
2022-12-23T17:14:15.219Z,7.13
2022-12-23T17:16:45.189Z,4.57
2022-12-23T17:19:27.255Z,0.80
2022-12-23T17:22:08.354Z,1.13
2022-12-23T17:24:38.002Z,0.50
2022-12-23T17:27:15.114Z,0.60
2022-12-23T17:29:43.992Z,0.80
2022-12-23T17:32:14.328Z,0.70
2022-12-23T17:34:44.727Z,0.77
2022-12-23T17:37:17.711Z,0.70
2022-12-23T17:39:49.152Z,1.00
2022-12-23T17:42:26.075Z,1.50
2022-12-23T17:44:56.910Z,1.00
2022-12-23T17:47:25.872Z,1.13
2022-12-23T17:49:57.368Z,1.10
2022-12-23T17:52:27.299Z,1.10
2022-12-23T17:54:56.238Z,1.50
2022-12-23T17:57:28.251Z,1.27
2022-12-23T17:59:58.856Z,1.80
2022-12-23T18:02:33.106Z,2.33
2022-12-23T18:05:06.690Z,2.63
2022-12-23T18:07:35.788Z,2.87
2022-12-23T18:10:06.338Z,3.03
2022-12-23T18:12:39.631Z,3.80
2022-12-23T18:15:23.983Z,2.53
2022-12-23T18:17:54.461Z,2.93
2022-12-23T18:20:26.750Z,2.60
2022-12-23T18:22:56.866Z,4.40
2022-12-23T18:25:28.540Z,7.43
2022-12-23T18:27:58.202Z,2.40
2022-12-23T18:30:28.233Z,4.10
2022-12-23T18:32:57.550Z,2.40
2022-12-23T18:35:31.849Z,2.63
2022-12-23T18:38:03.397Z,2.30
2022-12-23T18:40:34.129Z,2.33
2022-12-23T18:43:06.885Z,2.53
2022-12-23T18:45:38.019Z,2.50
2022-12-23T18:48:11.260Z,2.43
2022-12-23T18:50:42.642Z,2.70
2022-12-23T18:53:23.494Z,2.93
2022-12-23T18:55:53.485Z,2.20
2022-12-23T18:58:22.617Z,2.70
2022-12-23T19:00:53.403Z,2.40
2022-12-23T19:03:25.407Z,2.50
2022-12-23T19:05:57.378Z,2.70
2022-12-23T19:08:27.983Z,3.03
2022-12-23T19:10:58.022Z,3.07
2022-12-23T19:13:26.910Z,3.80
2022-12-23T19:15:56.348Z,3.00
2022-12-23T19:18:26.890Z,2.83
2022-12-23T19:20:59.320Z,2.73
2022-12-23T19:23:31.968Z,2.67
2022-12-23T19:26:04.618Z,4.97
2022-12-23T19:28:38.265Z,2.70
2022-12-23T19:31:09.914Z,4.60
2022-12-23T19:33:40.485Z,2.33
2022-12-23T19:36:12.831Z,5.53
2022-12-23T19:38:42.299Z,2.93
2022-12-23T19:41:12.299Z,2.60
2022-12-23T19:43:45.832Z,2.60
2022-12-23T19:46:16.885Z,3.80
2022-12-23T19:48:51.321Z,3.00
2022-12-23T19:51:24.339Z,2.87
2022-12-23T19:53:56.223Z,7.60
2022-12-23T19:56:30.567Z,3.30
2022-12-23T19:59:03.401Z,3.60
2022-12-23T20:01:34.378Z,4.07
2022-12-23T20:04:04.056Z,4.53
2022-12-23T20:06:39.905Z,6.03
2022-12-23T20:09:11.479Z,2.53
2022-12-23T20:11:46.963Z,4.47
2022-12-23T20:14:18.345Z,5.63
2022-12-23T20:16:50.397Z,5.90
2022-12-23T20:19:23.869Z,3.73
2022-12-23T20:22:00.719Z,3.10
2022-12-23T20:24:30.588Z,6.97
2022-12-23T20:27:07.906Z,8.00
2022-12-23T20:29:40.907Z,2.43
2022-12-23T20:32:11.114Z,1.33
2022-12-23T20:34:40.439Z,6.87
2022-12-23T20:37:12.175Z,6.17
2022-12-23T20:39:41.702Z,7.80
2022-12-23T20:42:11.983Z,5.10
2022-12-23T20:44:45.932Z,9.23
2022-12-23T20:47:15.208Z,6.93
2022-12-23T20:49:46.168Z,8.80
2022-12-23T20:52:16.609Z,3.70
2022-12-23T20:54:46.793Z,4.87
2022-12-23T20:57:16.415Z,6.27
2022-12-23T20:59:47.545Z,7.80
2022-12-23T21:02:17.435Z,10.83
2022-12-23T21:04:47.957Z,8.80
2022-12-23T21:07:18.134Z,8.60
2022-12-23T21:09:47.912Z,9.63
2022-12-23T21:12:16.635Z,8.73
2022-12-23T21:14:45.502Z,4.90
2022-12-23T21:17:14.458Z,11.13
2022-12-23T21:19:43.362Z,9.33
2022-12-23T21:22:14.189Z,6.60
2022-12-23T21:24:47.328Z,3.90
2022-12-23T21:27:16.643Z,4.30
2022-12-23T21:29:48.709Z,3.30
2022-12-23T21:32:17.438Z,6.60
2022-12-23T21:34:46.839Z,1.80
2022-12-23T21:37:15.963Z,6.30
2022-12-23T21:39:46.386Z,3.63
2022-12-23T21:42:16.507Z,4.90
2022-12-23T21:44:48.413Z,6.47
2022-12-23T21:47:17.499Z,4.90
2022-12-23T21:49:49.111Z,8.43
2022-12-23T21:52:17.913Z,6.50
2022-12-23T21:54:49.123Z,8.77
2022-12-23T21:57:19.006Z,8.83
2022-12-23T21:59:52.408Z,6.80
2022-12-23T22:02:21.979Z,4.20
2022-12-23T22:04:51.623Z,11.43
2022-12-23T22:07:20.811Z,9.30
2022-12-23T22:09:51.320Z,10.07
2022-12-23T22:12:21.100Z,9.30
2022-12-23T22:14:50.544Z,6.50
2022-12-23T22:17:20.739Z,9.10
2022-12-23T22:19:50.020Z,10.10
2022-12-23T22:22:21.587Z,15.27
2022-12-23T22:24:54.672Z,9.83
2022-12-23T22:27:24.775Z,10.27
2022-12-23T22:29:57.973Z,8.50
2022-12-23T22:32:27.508Z,3.37
2022-12-23T22:34:57.193Z,4.97
2022-12-23T22:37:27.091Z,10.93
2022-12-23T22:39:59.015Z,6.40
2022-12-23T22:42:29.558Z,10.27
2022-12-23T22:44:58.742Z,8.80
2022-12-23T22:47:31.517Z,6.37
2022-12-23T22:50:02.798Z,8.33
2022-12-23T22:52:32.298Z,10.40
2022-12-23T22:55:03.439Z,10.57
2022-12-23T22:57:33.280Z,10.43
2022-12-23T23:00:11.979Z,7.83
2022-12-23T23:02:41.643Z,9.63
2022-12-23T23:05:15.676Z,8.50
2022-12-23T23:07:44.989Z,8.00
2022-12-23T23:10:17.227Z,12.97
2022-12-23T23:12:51.039Z,5.83
2022-12-23T23:15:24.836Z,12.83
2022-12-23T23:17:58.211Z,10.47
2022-12-23T23:20:28.224Z,7.43
2022-12-23T23:22:57.481Z,7.73
2022-12-23T23:25:27.664Z,10.07
2022-12-23T23:27:59.132Z,9.43
2022-12-23T23:30:27.385Z,11.00
2022-12-23T23:32:55.462Z,5.90
2022-12-23T23:35:23.554Z,7.87
2022-12-23T23:37:51.653Z,11.07
2022-12-23T23:40:20.003Z,9.43
2022-12-23T23:42:49.490Z,9.43
2022-12-23T23:45:18.045Z,7.00
2022-12-23T23:47:46.234Z,12.40
2022-12-23T23:50:14.565Z,9.47
2022-12-23T23:52:42.676Z,14.50
2022-12-23T23:55:11.237Z,8.30
2022-12-23T23:57:39.445Z,9.30
